createdAt,value
2019-01-17T00:00:50.652Z,7.00
2019-01-17T00:03:41.612Z,6.90
2019-01-17T00:06:32.270Z,7.00
2019-01-17T00:09:30.856Z,6.90
2019-01-17T00:12:14.691Z,6.90
2019-01-17T00:15:08.601Z,7.00
2019-01-17T00:18:12.711Z,6.90
2019-01-17T00:21:06.183Z,7.00
2019-01-17T00:24:12.165Z,7.00
2019-01-17T00:27:05.573Z,6.90
2019-01-17T00:29:55.750Z,6.90
2019-01-17T00:32:52.302Z,6.80
2019-01-17T00:35:41.486Z,6.80
2019-01-17T00:38:34.904Z,6.80
2019-01-17T00:41:17.550Z,6.80
2019-01-17T00:44:06.892Z,6.80
2019-01-17T00:46:57.246Z,6.80
2019-01-17T00:49:55.070Z,6.80
2019-01-17T00:52:54.334Z,6.80
2019-01-17T00:55:34.945Z,6.80
2019-01-17T00:58:31.357Z,6.90
2019-01-17T01:01:10.758Z,6.90
2019-01-17T01:04:04.309Z,6.90
2019-01-17T01:06:56.403Z,6.90
2019-01-17T01:10:01.135Z,6.70
2019-01-17T01:12:52.254Z,6.70
2019-01-17T01:15:54.990Z,6.70
2019-01-17T01:18:33.248Z,6.70
2019-01-17T01:21:22.334Z,6.60
2019-01-17T01:24:15.433Z,6.70
2019-01-17T01:27:03.976Z,6.70
2019-01-17T01:29:54.139Z,6.60
2019-01-17T01:32:43.300Z,6.60
2019-01-17T01:35:46.406Z,6.70
2019-01-17T01:38:35.931Z,6.60
2019-01-17T01:41:30.203Z,6.60
2019-01-17T01:44:17.659Z,6.60
2019-01-17T01:47:07.959Z,6.60
2019-01-17T01:50:00.813Z,6.50
2019-01-17T01:52:48.872Z,6.50
2019-01-17T01:55:25.880Z,6.50
2019-01-17T01:57:57.225Z,6.40
2019-01-17T02:00:28.824Z,6.40
2019-01-17T02:03:00.365Z,6.40
2019-01-17T02:05:33.014Z,6.40
2019-01-17T02:08:04.577Z,6.30
2019-01-17T02:10:36.203Z,6.40
2019-01-17T02:13:07.745Z,6.40
2019-01-17T02:15:39.026Z,6.40
2019-01-17T02:18:10.506Z,6.30
2019-01-17T02:20:42.090Z,6.30
2019-01-17T02:23:13.907Z,6.30
2019-01-17T02:25:45.851Z,6.30
2019-01-17T02:28:17.391Z,6.30
2019-01-17T02:30:49.075Z,6.20
2019-01-17T02:33:30.936Z,6.20
2019-01-17T02:36:02.742Z,6.20
2019-01-17T02:38:34.287Z,6.20
2019-01-17T02:41:05.776Z,6.30
2019-01-17T02:43:37.046Z,6.20
2019-01-17T02:46:08.425Z,6.20
2019-01-17T02:48:40.204Z,6.20
2019-01-17T02:51:11.772Z,6.20
2019-01-17T02:53:43.572Z,6.20
2019-01-17T02:56:15.188Z,6.30
2019-01-17T02:58:47.152Z,6.20
2019-01-17T03:01:18.811Z,6.20
2019-01-17T03:03:50.824Z,6.20
2019-01-17T03:06:22.093Z,6.20
2019-01-17T03:08:54.711Z,6.10
2019-01-17T03:11:26.084Z,6.10
2019-01-17T03:13:57.392Z,6.10
2019-01-17T03:16:28.933Z,6.10
2019-01-17T03:19:00.730Z,6.10
2019-01-17T03:21:32.212Z,6.10
2019-01-17T03:24:03.909Z,6.10
2019-01-17T03:26:35.747Z,6.10
2019-01-17T03:29:06.949Z,6.10
2019-01-17T03:31:38.408Z,6.10
2019-01-17T03:34:09.680Z,6.00
2019-01-17T03:36:40.945Z,6.00
2019-01-17T03:39:12.318Z,6.00
2019-01-17T03:41:44.183Z,6.00
2019-01-17T03:44:16.091Z,6.00
2019-01-17T03:46:47.304Z,5.90
2019-01-17T03:49:18.719Z,5.90
2019-01-17T03:51:50.082Z,5.90
2019-01-17T03:54:21.851Z,5.90
2019-01-17T03:56:53.384Z,5.80
2019-01-17T03:59:24.792Z,5.90
2019-01-17T04:01:56.344Z,5.80
2019-01-17T04:04:33.204Z,5.80
2019-01-17T04:07:04.381Z,5.80
2019-01-17T04:09:35.914Z,5.80
2019-01-17T04:12:07.811Z,5.70
2019-01-17T04:14:44.694Z,5.80
2019-01-17T04:17:16.045Z,5.70
2019-01-17T04:19:47.611Z,5.70
2019-01-17T04:22:19.171Z,5.70
2019-01-17T04:24:57.272Z,5.60
2019-01-17T04:27:24.726Z,5.60
2019-01-17T04:29:56.152Z,5.60
2019-01-17T04:32:29.799Z,5.60
2019-01-17T04:35:01.663Z,5.60
2019-01-17T04:37:33.051Z,5.70
2019-01-17T04:40:04.706Z,5.60
2019-01-17T04:42:36.062Z,5.60
2019-01-17T04:45:08.692Z,5.60
2019-01-17T04:47:40.023Z,5.60
2019-01-17T04:50:12.726Z,5.60
2019-01-17T04:52:44.375Z,5.60
2019-01-17T04:55:16.310Z,5.60
2019-01-17T04:57:47.967Z,5.60
2019-01-17T05:00:21.194Z,5.60
2019-01-17T05:02:53.049Z,5.70
2019-01-17T05:05:24.729Z,5.60
2019-01-17T05:07:56.030Z,5.60
2019-01-17T05:10:27.751Z,5.60
2019-01-17T05:12:59.304Z,5.60
2019-01-17T05:15:30.767Z,5.60
2019-01-17T05:18:03.856Z,5.60
2019-01-17T05:20:35.226Z,5.60
2019-01-17T05:23:07.448Z,5.60
2019-01-17T05:25:38.622Z,5.70
2019-01-17T05:28:10.784Z,5.70
2019-01-17T05:30:43.489Z,5.60
2019-01-17T05:33:14.987Z,5.60
2019-01-17T05:35:46.711Z,5.70
2019-01-17T05:38:18.395Z,5.60
2019-01-17T05:40:50.027Z,5.60
2019-01-17T05:43:27.141Z,5.50
2019-01-17T05:45:58.648Z,5.50
2019-01-17T05:48:29.828Z,5.50
2019-01-17T05:51:01.232Z,5.50
2019-01-17T05:53:43.212Z,5.50
2019-01-17T05:56:14.803Z,5.60
2019-01-17T05:58:46.429Z,5.50
2019-01-17T06:01:18.054Z,5.50
2019-01-17T06:03:49.846Z,5.40
2019-01-17T06:06:21.531Z,5.50
2019-01-17T06:08:53.423Z,5.50
2019-01-17T06:11:25.314Z,5.50
2019-01-17T06:13:56.985Z,5.40
2019-01-17T06:16:28.390Z,5.30
2019-01-17T06:18:59.803Z,5.30
2019-01-17T06:21:31.575Z,5.30
2019-01-17T06:24:04.280Z,5.20
2019-01-17T06:26:35.704Z,5.10
2019-01-17T06:29:07.156Z,5.20
2019-01-17T06:31:38.595Z,5.20
2019-01-17T06:34:09.980Z,5.20
2019-01-17T06:36:41.434Z,5.10
2019-01-17T06:39:13.000Z,5.10
2019-01-17T06:41:44.749Z,5.00
2019-01-17T06:44:20.263Z,5.00
2019-01-17T06:46:49.672Z,5.00
2019-01-17T06:49:21.452Z,5.00
2019-01-17T06:51:52.973Z,5.00
2019-01-17T06:54:24.930Z,5.00
2019-01-17T06:56:56.194Z,5.00
2019-01-17T06:59:27.605Z,4.90
2019-01-17T07:01:59.010Z,4.80
2019-01-17T07:04:31.176Z,4.80
2019-01-17T07:07:02.657Z,4.80
2019-01-17T07:09:33.980Z,4.80
2019-01-17T07:12:05.491Z,4.80
2019-01-17T07:14:37.206Z,4.80
2019-01-17T07:17:08.444Z,4.80
2019-01-17T07:19:39.736Z,4.70
2019-01-17T07:22:11.140Z,4.80
2019-01-17T07:24:42.696Z,4.70
2019-01-17T07:27:14.129Z,4.70
2019-01-17T07:29:46.833Z,4.70
2019-01-17T07:32:18.188Z,4.70
2019-01-17T07:34:52.581Z,4.70
2019-01-17T07:37:24.199Z,4.60
2019-01-17T07:39:55.577Z,4.60
2019-01-17T07:42:27.114Z,4.60
2019-01-17T07:44:59.010Z,4.70
2019-01-17T07:47:30.541Z,4.60
2019-01-17T07:50:02.080Z,4.50
2019-01-17T07:52:33.594Z,4.60
2019-01-17T07:55:06.447Z,4.60
2019-01-17T07:57:37.951Z,4.70
2019-01-17T08:00:12.698Z,4.70
2019-01-17T08:02:44.028Z,4.70
2019-01-17T08:05:15.896Z,4.60
2019-01-17T08:07:47.259Z,4.70
2019-01-17T08:10:19.646Z,4.70
2019-01-17T08:12:51.461Z,4.60
2019-01-17T08:15:22.926Z,4.70
2019-01-17T08:17:54.871Z,4.70
2019-01-17T08:20:26.245Z,4.70
2019-01-17T08:22:57.455Z,4.70
2019-01-17T08:25:29.076Z,4.70
2019-01-17T08:28:00.815Z,4.70
2019-01-17T08:30:32.121Z,4.80
2019-01-17T08:33:03.498Z,4.80
2019-01-17T08:35:34.902Z,4.80
2019-01-17T08:38:07.231Z,4.80
2019-01-17T08:40:38.818Z,4.80
2019-01-17T08:43:10.402Z,4.70
2019-01-17T08:45:41.797Z,4.90
2019-01-17T08:48:13.066Z,4.80
2019-01-17T08:50:44.639Z,4.90
2019-01-17T08:53:16.363Z,4.90
2019-01-17T08:55:47.946Z,4.90
2019-01-17T08:58:19.329Z,4.90
2019-01-17T09:00:51.203Z,5.00
2019-01-17T09:03:22.475Z,5.10
2019-01-17T09:05:54.223Z,5.10
2019-01-17T09:08:26.590Z,5.10
2019-01-17T09:10:58.106Z,5.20
2019-01-17T09:13:29.789Z,5.20
2019-01-17T09:16:00.956Z,5.20
2019-01-17T09:18:32.200Z,5.30
2019-01-17T09:21:03.910Z,5.30
2019-01-17T09:23:35.576Z,5.30
2019-01-17T09:26:07.667Z,5.30
2019-01-17T09:28:39.353Z,5.30
2019-01-17T09:31:10.682Z,5.30
2019-01-17T09:33:42.227Z,5.40
2019-01-17T09:36:13.758Z,5.40
2019-01-17T09:38:45.396Z,5.40
2019-01-17T09:41:16.723Z,5.60
2019-01-17T09:43:48.025Z,5.60
2019-01-17T09:46:19.719Z,5.60
2019-01-17T09:48:51.432Z,5.50
2019-01-17T09:51:22.924Z,5.50
2019-01-17T09:53:54.560Z,5.60
2019-01-17T09:56:26.244Z,5.70
2019-01-17T09:58:57.515Z,5.70
2019-01-17T10:01:29.036Z,5.60
2019-01-17T10:04:01.310Z,5.80
2019-01-17T10:06:34.376Z,5.80
2019-01-17T10:09:08.403Z,5.90
2019-01-17T10:11:39.611Z,5.70
2019-01-17T10:14:11.407Z,5.60
2019-01-17T10:17:23.366Z,5.60
2019-01-17T10:20:31.829Z,5.70
2019-01-17T10:23:41.913Z,5.80
2019-01-17T10:26:23.209Z,5.70
2019-01-17T10:29:15.004Z,5.50
2019-01-17T10:32:17.277Z,5.50
2019-01-17T10:35:21.760Z,5.50
2019-01-17T10:38:19.571Z,5.40
2019-01-17T10:41:24.562Z,5.50
2019-01-17T10:44:26.932Z,5.40
2019-01-17T10:47:48.722Z,5.50
2019-01-17T10:51:12.253Z,5.40
2019-01-17T10:54:09.788Z,5.50
2019-01-17T10:57:14.055Z,5.50
2019-01-17T11:00:21.669Z,5.50
2019-01-17T11:03:37.109Z,5.50
2019-01-17T11:06:48.035Z,5.50
2019-01-17T11:09:50.608Z,5.40
2019-01-17T11:12:44.856Z,5.40
2019-01-17T11:15:57.257Z,5.50
2019-01-17T11:19:09.374Z,5.50
2019-01-17T11:21:55.399Z,5.50
2019-01-17T11:25:16.554Z,5.50
2019-01-17T11:28:31.677Z,5.50
2019-01-17T11:31:25.432Z,5.50
2019-01-17T11:34:33.019Z,5.50
2019-01-17T11:37:48.380Z,5.50
2019-01-17T11:40:50.834Z,5.50
2019-01-17T11:44:03.160Z,5.70
2019-01-17T11:47:06.546Z,5.70
2019-01-17T11:50:07.251Z,5.70
2019-01-17T11:53:10.774Z,5.70
2019-01-17T11:56:06.424Z,5.80
2019-01-17T11:59:06.572Z,5.90
2019-01-17T12:02:07.017Z,6.00
2019-01-17T12:04:37.894Z,6.00
2019-01-17T12:07:14.985Z,5.90
2019-01-17T12:09:47.886Z,5.90
2019-01-17T12:12:26.317Z,5.90
2019-01-17T12:14:59.639Z,5.90
2019-01-17T12:17:30.898Z,5.90
2019-01-17T12:20:02.475Z,5.80
2019-01-17T12:22:34.620Z,5.90
2019-01-17T12:25:07.860Z,5.90
2019-01-17T12:27:42.577Z,6.00
2019-01-17T12:30:14.702Z,6.10
2019-01-17T12:32:46.496Z,6.10
2019-01-17T12:35:27.785Z,6.10
2019-01-17T12:37:59.240Z,6.00
2019-01-17T12:40:30.980Z,6.10
2019-01-17T12:43:02.328Z,6.10
2019-01-17T12:45:34.084Z,6.20
2019-01-17T12:48:05.639Z,6.20
2019-01-17T12:50:37.313Z,6.20
2019-01-17T12:53:10.500Z,6.20
2019-01-17T12:55:42.197Z,6.30
2019-01-17T12:58:13.937Z,6.30
2019-01-17T13:00:45.697Z,6.30
2019-01-17T13:03:17.423Z,6.30
2019-01-17T13:05:49.017Z,6.30
2019-01-17T13:08:23.179Z,6.30
2019-01-17T13:10:54.994Z,6.30
2019-01-17T13:13:31.846Z,6.30
2019-01-17T13:16:03.942Z,6.30
2019-01-17T13:18:35.476Z,6.30
2019-01-17T13:21:07.584Z,6.30
2019-01-17T13:23:39.364Z,6.20
2019-01-17T13:26:11.310Z,6.10
2019-01-17T13:28:43.017Z,6.10
2019-01-17T13:31:14.888Z,6.20
2019-01-17T13:33:46.737Z,6.20
2019-01-17T13:36:18.171Z,6.20
2019-01-17T13:38:49.500Z,6.20
2019-01-17T13:41:21.269Z,6.20
2019-01-17T13:43:53.125Z,6.10
2019-01-17T13:46:24.598Z,6.20
2019-01-17T13:48:56.031Z,6.20
2019-01-17T13:51:27.369Z,6.20
2019-01-17T13:53:59.093Z,6.20
2019-01-17T13:56:30.948Z,6.10
2019-01-17T13:59:02.762Z,6.10
2019-01-17T14:01:34.182Z,6.20
2019-01-17T14:04:05.604Z,6.10
2019-01-17T14:06:37.149Z,6.10
2019-01-17T14:09:09.907Z,6.10
2019-01-17T14:11:41.178Z,6.00
2019-01-17T14:14:18.109Z,6.00
2019-01-17T14:16:49.552Z,6.00
2019-01-17T14:19:21.624Z,5.90
2019-01-17T14:21:53.199Z,5.90
2019-01-17T14:24:25.175Z,5.90
2019-01-17T14:26:56.485Z,5.90
2019-01-17T14:29:28.046Z,5.80
2019-01-17T14:31:59.283Z,5.80
2019-01-17T14:34:30.628Z,5.80
2019-01-17T14:37:02.233Z,5.70
2019-01-17T14:39:33.618Z,5.80
2019-01-17T14:42:06.302Z,5.70
2019-01-17T14:44:38.000Z,5.70
2019-01-17T14:47:09.402Z,5.60
2019-01-17T14:49:40.658Z,5.60
2019-01-17T14:52:12.665Z,5.60
2019-01-17T14:54:44.357Z,5.50
2019-01-17T14:57:20.555Z,5.30
2019-01-17T14:59:49.434Z,5.30
2019-01-17T15:02:20.865Z,5.30
2019-01-17T15:04:52.949Z,5.20
2019-01-17T15:07:24.600Z,5.20
2019-01-17T15:09:56.065Z,5.10
2019-01-17T15:12:27.502Z,5.10
2019-01-17T15:15:04.890Z,5.10
2019-01-17T15:17:36.443Z,5.20
2019-01-17T15:20:11.374Z,5.20
2019-01-17T15:22:43.410Z,5.20
2019-01-17T15:25:15.373Z,5.20
2019-01-17T15:27:46.826Z,5.10
2019-01-17T15:30:20.911Z,5.20
2019-01-17T15:32:53.012Z,5.20
2019-01-17T15:35:24.616Z,5.20
2019-01-17T15:37:55.923Z,5.20
2019-01-17T15:40:29.550Z,5.20
2019-01-17T15:43:01.914Z,5.20
2019-01-17T15:45:33.528Z,5.30
2019-01-17T15:48:05.310Z,5.20
2019-01-17T15:50:36.730Z,5.10
2019-01-17T15:53:08.342Z,4.90
2019-01-17T15:55:39.937Z,4.80
2019-01-17T15:58:11.303Z,4.70
2019-01-17T16:00:43.116Z,4.60
2019-01-17T16:03:14.530Z,4.60
2019-01-17T16:05:46.398Z,4.60
2019-01-17T16:08:17.964Z,4.70
2019-01-17T16:10:49.224Z,4.70
2019-01-17T16:13:21.051Z,4.70
2019-01-17T16:15:52.653Z,4.70
2019-01-17T16:18:23.946Z,4.70
2019-01-17T16:20:55.624Z,4.70
2019-01-17T16:23:27.474Z,4.80
2019-01-17T16:25:58.879Z,4.80
2019-01-17T16:28:30.182Z,4.90
2019-01-17T16:31:01.908Z,4.80
2019-01-17T16:33:33.453Z,4.90
2019-01-17T16:36:06.632Z,4.90
2019-01-17T16:38:38.155Z,4.90
2019-01-17T16:41:09.715Z,4.90
2019-01-17T16:43:49.155Z,4.90
2019-01-17T16:46:20.945Z,4.90
2019-01-17T16:48:53.626Z,4.90
2019-01-17T16:51:24.920Z,4.90
2019-01-17T16:53:56.495Z,4.90
2019-01-17T16:56:28.067Z,4.90
2019-01-17T16:58:59.745Z,5.00
2019-01-17T17:01:31.228Z,5.00
2019-01-17T17:04:03.094Z,4.90
2019-01-17T17:06:34.625Z,5.00
2019-01-17T17:09:08.941Z,5.00
2019-01-17T17:11:40.292Z,5.00
2019-01-17T17:14:12.235Z,5.10
2019-01-17T17:16:43.869Z,5.10
2019-01-17T17:19:15.468Z,5.10
2019-01-17T17:21:46.833Z,5.10
2019-01-17T17:24:18.798Z,5.10
2019-01-17T17:26:50.469Z,5.20
2019-01-17T17:29:22.130Z,5.10
2019-01-17T17:31:53.921Z,5.10
2019-01-17T17:34:25.418Z,5.00
2019-01-17T17:36:56.739Z,5.10
2019-01-17T17:39:28.329Z,5.00
2019-01-17T17:41:59.846Z,5.00
2019-01-17T17:44:31.598Z,5.00
2019-01-17T17:47:02.952Z,5.00
2019-01-17T17:49:34.394Z,5.00
2019-01-17T17:52:05.991Z,5.00
2019-01-17T17:54:37.612Z,5.00
2019-01-17T17:57:09.183Z,5.00
2019-01-17T17:59:40.545Z,5.00
2019-01-17T18:02:20.436Z,4.90
2019-01-17T18:04:57.055Z,5.00
2019-01-17T18:07:28.535Z,4.90
2019-01-17T18:09:59.840Z,4.90
2019-01-17T18:12:31.328Z,4.90
2019-01-17T18:15:03.177Z,4.90
2019-01-17T18:17:34.930Z,4.90
2019-01-17T18:20:08.393Z,4.80
2019-01-17T18:22:39.809Z,4.80
2019-01-17T18:25:11.802Z,4.90
2019-01-17T18:27:43.575Z,4.90
2019-01-17T18:30:20.612Z,4.90
2019-01-17T18:32:54.493Z,4.80
2019-01-17T18:35:28.029Z,4.80
2019-01-17T18:37:59.528Z,4.80
2019-01-17T18:40:30.994Z,4.80
2019-01-17T18:43:02.354Z,4.80
2019-01-17T18:45:33.789Z,4.80
2019-01-17T18:48:05.339Z,4.70
2019-01-17T18:50:36.999Z,4.80
2019-01-17T18:53:08.516Z,4.70
2019-01-17T18:55:40.167Z,4.80
2019-01-17T18:58:15.603Z,4.70
2019-01-17T19:00:46.024Z,4.70
2019-01-17T19:03:17.863Z,4.80
2019-01-17T19:05:49.267Z,4.80
2019-01-17T19:08:20.735Z,4.80
2019-01-17T19:10:52.488Z,4.80
2019-01-17T19:13:24.451Z,4.80
2019-01-17T19:15:55.860Z,4.80
2019-01-17T19:18:27.230Z,4.80
2019-01-17T19:20:59.594Z,4.80
2019-01-17T19:23:36.134Z,4.80
2019-01-17T19:26:07.804Z,4.80
2019-01-17T19:28:39.365Z,4.80
2019-01-17T19:31:11.725Z,4.80
2019-01-17T19:33:44.039Z,4.80
2019-01-17T19:36:15.395Z,4.80
2019-01-17T19:38:46.841Z,4.80
2019-01-17T19:41:18.396Z,4.80
2019-01-17T19:43:50.648Z,4.80
2019-01-17T19:46:22.127Z,4.80
2019-01-17T19:48:53.560Z,4.80
2019-01-17T19:51:25.147Z,4.80
2019-01-17T19:53:57.180Z,4.80
2019-01-17T19:56:29.303Z,4.80
2019-01-17T19:59:00.829Z,4.80
2019-01-17T20:01:32.187Z,4.80
2019-01-17T20:04:09.492Z,4.80
2019-01-17T20:06:40.831Z,4.80
2019-01-17T20:09:14.222Z,4.80
2019-01-17T20:11:45.795Z,4.80
2019-01-17T20:14:17.699Z,4.80
2019-01-17T20:16:49.226Z,4.80
2019-01-17T20:19:20.972Z,4.80
2019-01-17T20:21:52.744Z,4.80
2019-01-17T20:24:24.505Z,4.80
2019-01-17T20:26:55.928Z,4.80
2019-01-17T20:29:28.438Z,4.80
2019-01-17T20:32:00.507Z,4.90
2019-01-17T20:34:32.790Z,4.90
2019-01-17T20:37:04.294Z,4.90
2019-01-17T20:39:35.806Z,4.90
2019-01-17T20:42:08.387Z,4.90
2019-01-17T20:44:39.907Z,4.90
2019-01-17T20:47:11.348Z,5.00
2019-01-17T20:49:43.042Z,5.00
2019-01-17T20:52:15.123Z,4.90
2019-01-17T20:54:47.351Z,4.90
2019-01-17T20:57:18.777Z,4.90
2019-01-17T20:59:50.847Z,4.90
2019-01-17T21:02:22.594Z,4.90
2019-01-17T21:04:55.600Z,4.90
2019-01-17T21:07:27.119Z,4.90
2019-01-17T21:09:58.681Z,4.90
2019-01-17T21:12:30.592Z,4.90
2019-01-17T21:15:02.206Z,4.90
2019-01-17T21:17:34.656Z,4.90
2019-01-17T21:20:06.887Z,5.00
2019-01-17T21:22:39.679Z,5.00
2019-01-17T21:25:17.563Z,5.00
2019-01-17T21:27:49.047Z,5.00
2019-01-17T21:30:22.593Z,5.00
2019-01-17T21:32:54.533Z,5.00
2019-01-17T21:35:26.369Z,5.00
2019-01-17T21:37:58.180Z,5.10
2019-01-17T21:40:29.659Z,5.00
2019-01-17T21:43:01.153Z,5.00
2019-01-17T21:45:33.157Z,5.00
2019-01-17T21:48:05.954Z,5.00
2019-01-17T21:50:37.326Z,5.00
2019-01-17T21:53:08.928Z,5.00
2019-01-17T21:55:40.655Z,4.90
2019-01-17T21:58:12.504Z,4.90
2019-01-17T22:00:44.540Z,5.00
2019-01-17T22:03:21.496Z,4.90
2019-01-17T22:05:53.527Z,4.80
2019-01-17T22:08:24.932Z,4.80
2019-01-17T22:10:56.434Z,4.80
2019-01-17T22:13:27.979Z,4.80
2019-01-17T22:15:59.731Z,4.80
2019-01-17T22:18:32.058Z,4.70
2019-01-17T22:21:04.023Z,4.80
2019-01-17T22:23:35.627Z,4.70
2019-01-17T22:26:07.230Z,4.70
2019-01-17T22:28:38.527Z,4.80
2019-01-17T22:31:10.046Z,4.80
2019-01-17T22:33:42.281Z,4.80
2019-01-17T22:36:13.897Z,4.80
2019-01-17T22:38:45.937Z,4.80
2019-01-17T22:41:17.434Z,4.80
2019-01-17T22:43:48.817Z,4.80
2019-01-17T22:46:20.292Z,4.80
2019-01-17T22:48:53.488Z,4.80
2019-01-17T22:51:25.487Z,4.80
2019-01-17T22:53:57.244Z,4.70
2019-01-17T22:56:28.693Z,4.70
2019-01-17T22:59:00.689Z,4.70
2019-01-17T23:01:32.393Z,4.70
2019-01-17T23:04:06.502Z,4.70
2019-01-17T23:06:39.351Z,4.70
2019-01-17T23:09:11.123Z,4.80
2019-01-17T23:11:42.933Z,4.70
2019-01-17T23:14:14.923Z,4.80
2019-01-17T23:16:46.718Z,4.80
2019-01-17T23:19:18.057Z,4.80
2019-01-17T23:21:49.440Z,4.80
2019-01-17T23:24:21.083Z,4.90
2019-01-17T23:26:52.530Z,4.90
2019-01-17T23:29:23.921Z,4.90
2019-01-17T23:31:55.292Z,5.00
2019-01-17T23:34:26.573Z,5.00
2019-01-17T23:36:58.315Z,5.00
2019-01-17T23:39:30.783Z,5.00
2019-01-17T23:42:03.850Z,5.10
2019-01-17T23:44:40.361Z,4.90
2019-01-17T23:47:12.237Z,4.90
2019-01-17T23:49:45.049Z,5.00
2019-01-17T23:52:16.622Z,5.00
2019-01-17T23:54:57.491Z,5.00
2019-01-17T23:57:29.112Z,5.10
